sensor_id;sensor_type;location;lat;lon;timestamp;P1;durP1;ratioP1;P2;durP2;ratioP2
59786;SDS011;45672;51.612;5.536;2024-01-06T00:00:19;33.03;;;21.48;;
59786;SDS011;45672;51.612;5.536;2024-01-06T00:02:46;38.05;;;24.63;;
59786;SDS011;45672;51.612;5.536;2024-01-06T00:05:11;36.25;;;20.88;;
59786;SDS011;45672;51.612;5.536;2024-01-06T00:07:37;29.83;;;18.77;;
59786;SDS011;45672;51.612;5.536;2024-01-06T00:10:02;31.48;;;18.30;;
59786;SDS011;45672;51.612;5.536;2024-01-06T00:12:28;31.25;;;19.13;;
59786;SDS011;45672;51.612;5.536;2024-01-06T00:14:53;31.08;;;18.73;;
59786;SDS011;45672;51.612;5.536;2024-01-06T00:17:19;28.80;;;16.45;;
59786;SDS011;45672;51.612;5.536;2024-01-06T00:19:44;27.05;;;15.45;;
59786;SDS011;45672;51.612;5.536;2024-01-06T00:22:10;25.17;;;15.38;;
59786;SDS011;45672;51.612;5.536;2024-01-06T00:24:35;24.95;;;14.88;;
59786;SDS011;45672;51.612;5.536;2024-01-06T00:27:01;26.45;;;15.07;;
59786;SDS011;45672;51.612;5.536;2024-01-06T00:29:26;24.70;;;15.65;;
59786;SDS011;45672;51.612;5.536;2024-01-06T00:31:52;26.55;;;15.85;;
59786;SDS011;45672;51.612;5.536;2024-01-06T00:34:17;24.60;;;13.85;;
59786;SDS011;45672;51.612;5.536;2024-01-06T00:36:42;25.55;;;15.35;;
59786;SDS011;45672;51.612;5.536;2024-01-06T00:39:07;24.20;;;13.70;;
59786;SDS011;45672;51.612;5.536;2024-01-06T00:41:33;26.80;;;14.73;;
59786;SDS011;45672;51.612;5.536;2024-01-06T00:43:58;24.10;;;14.38;;
59786;SDS011;45672;51.612;5.536;2024-01-06T00:46:23;24.48;;;14.55;;
59786;SDS011;45672;51.612;5.536;2024-01-06T00:48:49;23.92;;;14.52;;
59786;SDS011;45672;51.612;5.536;2024-01-06T00:51:14;25.38;;;14.80;;
59786;SDS011;45672;51.612;5.536;2024-01-06T00:53:39;26.13;;;14.73;;
59786;SDS011;45672;51.612;5.536;2024-01-06T00:56:05;23.30;;;15.40;;
59786;SDS011;45672;51.612;5.536;2024-01-06T00:58:30;23.88;;;15.20;;
59786;SDS011;45672;51.612;5.536;2024-01-06T01:00:55;25.55;;;15.10;;
59786;SDS011;45672;51.612;5.536;2024-01-06T01:03:21;21.73;;;13.40;;
59786;SDS011;45672;51.612;5.536;2024-01-06T01:05:46;20.55;;;12.65;;
59786;SDS011;45672;51.612;5.536;2024-01-06T01:08:11;25.20;;;14.10;;
59786;SDS011;45672;51.612;5.536;2024-01-06T01:10:36;22.23;;;13.80;;
59786;SDS011;45672;51.612;5.536;2024-01-06T01:13:03;22.50;;;13.85;;
59786;SDS011;45672;51.612;5.536;2024-01-06T01:15:28;20.27;;;12.52;;
59786;SDS011;45672;51.612;5.536;2024-01-06T01:17:54;20.02;;;12.65;;
59786;SDS011;45672;51.612;5.536;2024-01-06T01:20:19;17.48;;;11.80;;
59786;SDS011;45672;51.612;5.536;2024-01-06T01:22:44;16.33;;;11.15;;
59786;SDS011;45672;51.612;5.536;2024-01-06T01:25:10;21.27;;;14.02;;
59786;SDS011;45672;51.612;5.536;2024-01-06T01:27:37;15.80;;;11.48;;
59786;SDS011;45672;51.612;5.536;2024-01-06T01:30:02;19.13;;;12.13;;
59786;SDS011;45672;51.612;5.536;2024-01-06T01:32:28;19.63;;;12.98;;
59786;SDS011;45672;51.612;5.536;2024-01-06T01:34:53;19.70;;;12.63;;
59786;SDS011;45672;51.612;5.536;2024-01-06T01:37:19;19.33;;;12.30;;
59786;SDS011;45672;51.612;5.536;2024-01-06T01:39:45;16.30;;;11.45;;
59786;SDS011;45672;51.612;5.536;2024-01-06T01:42:10;17.33;;;11.75;;
59786;SDS011;45672;51.612;5.536;2024-01-06T01:44:35;18.25;;;12.05;;
59786;SDS011;45672;51.612;5.536;2024-01-06T01:47:00;18.70;;;12.13;;
59786;SDS011;45672;51.612;5.536;2024-01-06T01:49:28;16.63;;;12.15;;
59786;SDS011;45672;51.612;5.536;2024-01-06T01:51:53;18.75;;;12.00;;
59786;SDS011;45672;51.612;5.536;2024-01-06T01:54:19;18.05;;;11.82;;
59786;SDS011;45672;51.612;5.536;2024-01-06T01:56:45;16.77;;;11.18;;
59786;SDS011;45672;51.612;5.536;2024-01-06T01:59:11;18.10;;;11.15;;
59786;SDS011;45672;51.612;5.536;2024-01-06T02:01:38;14.85;;;10.73;;
59786;SDS011;45672;51.612;5.536;2024-01-06T02:04:07;18.42;;;11.95;;
59786;SDS011;45672;51.612;5.536;2024-01-06T02:06:33;20.75;;;11.80;;
59786;SDS011;45672;51.612;5.536;2024-01-06T02:08:58;20.50;;;12.63;;
59786;SDS011;45672;51.612;5.536;2024-01-06T02:11:24;16.23;;;11.98;;
59786;SDS011;45672;51.612;5.536;2024-01-06T02:13:49;20.77;;;12.60;;
59786;SDS011;45672;51.612;5.536;2024-01-06T02:16:14;17.08;;;11.85;;
59786;SDS011;45672;51.612;5.536;2024-01-06T02:18:40;17.45;;;11.77;;
59786;SDS011;45672;51.612;5.536;2024-01-06T02:21:05;16.52;;;11.73;;
59786;SDS011;45672;51.612;5.536;2024-01-06T02:23:33;17.52;;;12.00;;
59786;SDS011;45672;51.612;5.536;2024-01-06T02:26:00;16.92;;;12.55;;
59786;SDS011;45672;51.612;5.536;2024-01-06T02:28:25;16.15;;;12.00;;
59786;SDS011;45672;51.612;5.536;2024-01-06T02:30:50;14.55;;;11.00;;
59786;SDS011;45672;51.612;5.536;2024-01-06T02:33:15;13.10;;;10.55;;
59786;SDS011;45672;51.612;5.536;2024-01-06T02:35:41;14.00;;;10.68;;
59786;SDS011;45672;51.612;5.536;2024-01-06T02:38:07;13.07;;;10.35;;
59786;SDS011;45672;51.612;5.536;2024-01-06T02:40:33;11.55;;;9.45;;
59786;SDS011;45672;51.612;5.536;2024-01-06T02:42:59;13.68;;;9.23;;
59786;SDS011;45672;51.612;5.536;2024-01-06T02:45:24;11.68;;;9.77;;
59786;SDS011;45672;51.612;5.536;2024-01-06T02:47:49;12.63;;;9.73;;
59786;SDS011;45672;51.612;5.536;2024-01-06T02:50:15;11.93;;;10.23;;
59786;SDS011;45672;51.612;5.536;2024-01-06T02:52:40;12.57;;;9.50;;
59786;SDS011;45672;51.612;5.536;2024-01-06T02:55:06;14.35;;;10.43;;
59786;SDS011;45672;51.612;5.536;2024-01-06T02:57:31;11.30;;;9.27;;
59786;SDS011;45672;51.612;5.536;2024-01-06T02:59:56;12.48;;;9.18;;
59786;SDS011;45672;51.612;5.536;2024-01-06T03:02:22;11.68;;;8.73;;
59786;SDS011;45672;51.612;5.536;2024-01-06T03:04:48;10.90;;;9.13;;
59786;SDS011;45672;51.612;5.536;2024-01-06T03:07:13;11.25;;;8.88;;
59786;SDS011;45672;51.612;5.536;2024-01-06T03:09:38;12.75;;;9.77;;
59786;SDS011;45672;51.612;5.536;2024-01-06T03:12:05;11.80;;;8.55;;
59786;SDS011;45672;51.612;5.536;2024-01-06T03:14:31;10.98;;;8.73;;
59786;SDS011;45672;51.612;5.536;2024-01-06T03:16:56;12.07;;;8.95;;
59786;SDS011;45672;51.612;5.536;2024-01-06T03:19:23;11.23;;;8.85;;
59786;SDS011;45672;51.612;5.536;2024-01-06T03:21:51;10.05;;;8.65;;
59786;SDS011;45672;51.612;5.536;2024-01-06T03:24:16;9.52;;;8.52;;
59786;SDS011;45672;51.612;5.536;2024-01-06T03:26:41;10.88;;;8.90;;
59786;SDS011;45672;51.612;5.536;2024-01-06T03:29:07;10.50;;;8.52;;
59786;SDS011;45672;51.612;5.536;2024-01-06T03:31:32;8.75;;;7.85;;
59786;SDS011;45672;51.612;5.536;2024-01-06T03:33:57;8.93;;;8.02;;
59786;SDS011;45672;51.612;5.536;2024-01-06T03:36:23;9.45;;;8.40;;
59786;SDS011;45672;51.612;5.536;2024-01-06T03:38:48;8.07;;;7.25;;
59786;SDS011;45672;51.612;5.536;2024-01-06T03:41:14;8.07;;;7.28;;
59786;SDS011;45672;51.612;5.536;2024-01-06T03:43:39;7.85;;;7.05;;
59786;SDS011;45672;51.612;5.536;2024-01-06T03:46:04;8.52;;;7.72;;
59786;SDS011;45672;51.612;5.536;2024-01-06T03:48:30;8.30;;;7.50;;
59786;SDS011;45672;51.612;5.536;2024-01-06T03:50:56;8.50;;;7.70;;
59786;SDS011;45672;51.612;5.536;2024-01-06T03:53:22;7.97;;;7.20;;
59786;SDS011;45672;51.612;5.536;2024-01-06T03:55:47;8.48;;;7.63;;
59786;SDS011;45672;51.612;5.536;2024-01-06T03:58:13;10.30;;;8.00;;
59786;SDS011;45672;51.612;5.536;2024-01-06T04:00:38;9.43;;;8.52;;
59786;SDS011;45672;51.612;5.536;2024-01-06T04:03:03;9.70;;;8.80;;
59786;SDS011;45672;51.612;5.536;2024-01-06T04:05:30;10.35;;;8.50;;
59786;SDS011;45672;51.612;5.536;2024-01-06T04:07:55;12.52;;;9.75;;
59786;SDS011;45672;51.612;5.536;2024-01-06T04:10:21;11.43;;;9.75;;
59786;SDS011;45672;51.612;5.536;2024-01-06T04:12:46;12.65;;;9.95;;
59786;SDS011;45672;51.612;5.536;2024-01-06T04:15:11;11.82;;;8.88;;
59786;SDS011;45672;51.612;5.536;2024-01-06T04:17:37;10.65;;;9.43;;
59786;SDS011;45672;51.612;5.536;2024-01-06T04:20:02;10.65;;;9.45;;
59786;SDS011;45672;51.612;5.536;2024-01-06T04:22:29;11.45;;;9.52;;
59786;SDS011;45672;51.612;5.536;2024-01-06T04:24:54;11.48;;;9.90;;
59786;SDS011;45672;51.612;5.536;2024-01-06T04:27:19;13.45;;;10.40;;
59786;SDS011;45672;51.612;5.536;2024-01-06T04:29:45;12.05;;;9.18;;
59786;SDS011;45672;51.612;5.536;2024-01-06T04:32:10;11.43;;;9.38;;
59786;SDS011;45672;51.612;5.536;2024-01-06T04:34:35;10.85;;;9.75;;
59786;SDS011;45672;51.612;5.536;2024-01-06T04:37:00;11.60;;;9.32;;
59786;SDS011;45672;51.612;5.536;2024-01-06T04:39:26;12.98;;;9.85;;
59786;SDS011;45672;51.612;5.536;2024-01-06T04:41:51;9.93;;;8.93;;
59786;SDS011;45672;51.612;5.536;2024-01-06T04:44:19;11.80;;;9.93;;
59786;SDS011;45672;51.612;5.536;2024-01-06T04:46:45;11.52;;;9.77;;
59786;SDS011;45672;51.612;5.536;2024-01-06T04:49:11;11.98;;;9.90;;
59786;SDS011;45672;51.612;5.536;2024-01-06T04:51:36;13.00;;;9.48;;
59786;SDS011;45672;51.612;5.536;2024-01-06T04:54:01;10.77;;;9.65;;
59786;SDS011;45672;51.612;5.536;2024-01-06T04:56:27;11.98;;;10.20;;
59786;SDS011;45672;51.612;5.536;2024-01-06T04:58:52;11.68;;;9.60;;
59786;SDS011;45672;51.612;5.536;2024-01-06T05:01:17;10.27;;;9.18;;
59786;SDS011;45672;51.612;5.536;2024-01-06T05:03:43;9.68;;;8.68;;
59786;SDS011;45672;51.612;5.536;2024-01-06T05:06:08;11.88;;;9.10;;
59786;SDS011;45672;51.612;5.536;2024-01-06T05:08:33;10.68;;;8.95;;
59786;SDS011;45672;51.612;5.536;2024-01-06T05:10:58;10.57;;;9.05;;
59786;SDS011;45672;51.612;5.536;2024-01-06T05:13:25;10.18;;;8.90;;
59786;SDS011;45672;51.612;5.536;2024-01-06T05:15:50;12.77;;;8.85;;
59786;SDS011;45672;51.612;5.536;2024-01-06T05:18:16;11.07;;;9.90;;
59786;SDS011;45672;51.612;5.536;2024-01-06T05:20:42;11.27;;;9.45;;
59786;SDS011;45672;51.612;5.536;2024-01-06T05:23:07;11.77;;;8.98;;
59786;SDS011;45672;51.612;5.536;2024-01-06T05:25:32;12.80;;;8.85;;
59786;SDS011;45672;51.612;5.536;2024-01-06T05:27:57;12.27;;;9.35;;
59786;SDS011;45672;51.612;5.536;2024-01-06T05:30:23;18.08;;;10.48;;
59786;SDS011;45672;51.612;5.536;2024-01-06T05:32:49;13.93;;;9.90;;
59786;SDS011;45672;51.612;5.536;2024-01-06T05:35:15;12.55;;;8.13;;
59786;SDS011;45672;51.612;5.536;2024-01-06T05:37:41;14.90;;;9.02;;
59786;SDS011;45672;51.612;5.536;2024-01-06T05:40:06;14.77;;;9.32;;
59786;SDS011;45672;51.612;5.536;2024-01-06T05:42:32;20.95;;;9.68;;
59786;SDS011;45672;51.612;5.536;2024-01-06T05:44:58;15.77;;;9.40;;
59786;SDS011;45672;51.612;5.536;2024-01-06T05:47:23;18.00;;;9.55;;
59786;SDS011;45672;51.612;5.536;2024-01-06T05:49:48;13.52;;;9.38;;
59786;SDS011;45672;51.612;5.536;2024-01-06T05:52:14;13.25;;;9.60;;
59786;SDS011;45672;51.612;5.536;2024-01-06T05:54:40;21.80;;;10.75;;
59786;SDS011;45672;51.612;5.536;2024-01-06T05:57:08;13.55;;;9.75;;
59786;SDS011;45672;51.612;5.536;2024-01-06T05:59:34;10.60;;;8.20;;
59786;SDS011;45672;51.612;5.536;2024-01-06T06:02:00;13.43;;;8.93;;
59786;SDS011;45672;51.612;5.536;2024-01-06T06:04:25;10.85;;;8.85;;
59786;SDS011;45672;51.612;5.536;2024-01-06T06:06:51;8.68;;;7.80;;
59786;SDS011;45672;51.612;5.536;2024-01-06T06:09:16;10.15;;;8.60;;
59786;SDS011;45672;51.612;5.536;2024-01-06T06:11:42;10.52;;;7.55;;
59786;SDS011;45672;51.612;5.536;2024-01-06T06:14:07;10.23;;;7.82;;
59786;SDS011;45672;51.612;5.536;2024-01-06T06:16:33;8.68;;;7.75;;
59786;SDS011;45672;51.612;5.536;2024-01-06T06:18:58;10.00;;;7.57;;
59786;SDS011;45672;51.612;5.536;2024-01-06T06:21:24;8.75;;;7.43;;
59786;SDS011;45672;51.612;5.536;2024-01-06T06:23:49;8.35;;;7.45;;
59786;SDS011;45672;51.612;5.536;2024-01-06T06:26:15;15.57;;;8.10;;
59786;SDS011;45672;51.612;5.536;2024-01-06T06:28:40;11.50;;;7.47;;
59786;SDS011;45672;51.612;5.536;2024-01-06T06:31:06;6.45;;;5.85;;
59786;SDS011;45672;51.612;5.536;2024-01-06T06:33:32;7.65;;;6.85;;
59786;SDS011;45672;51.612;5.536;2024-01-06T06:35:58;10.18;;;8.18;;
59786;SDS011;45672;51.612;5.536;2024-01-06T06:38:24;10.25;;;8.30;;
59786;SDS011;45672;51.612;5.536;2024-01-06T06:40:51;11.25;;;8.15;;
59786;SDS011;45672;51.612;5.536;2024-01-06T06:43:16;9.43;;;8.43;;
59786;SDS011;45672;51.612;5.536;2024-01-06T06:45:41;12.23;;;8.55;;
59786;SDS011;45672;51.612;5.536;2024-01-06T06:48:07;9.13;;;7.88;;
59786;SDS011;45672;51.612;5.536;2024-01-06T06:50:32;11.02;;;8.77;;
59786;SDS011;45672;51.612;5.536;2024-01-06T06:52:58;10.05;;;8.13;;
59786;SDS011;45672;51.612;5.536;2024-01-06T06:55:24;11.07;;;8.20;;
59786;SDS011;45672;51.612;5.536;2024-01-06T06:57:49;10.95;;;9.00;;
59786;SDS011;45672;51.612;5.536;2024-01-06T07:00:15;10.45;;;8.88;;
59786;SDS011;45672;51.612;5.536;2024-01-06T07:02:42;11.45;;;9.32;;
59786;SDS011;45672;51.612;5.536;2024-01-06T07:05:07;10.68;;;9.07;;
59786;SDS011;45672;51.612;5.536;2024-01-06T07:07:33;13.57;;;9.40;;
59786;SDS011;45672;51.612;5.536;2024-01-06T07:10:00;10.88;;;9.02;;
59786;SDS011;45672;51.612;5.536;2024-01-06T07:12:26;10.73;;;9.02;;
59786;SDS011;45672;51.612;5.536;2024-01-06T07:14:52;11.98;;;8.35;;
59786;SDS011;45672;51.612;5.536;2024-01-06T07:17:17;11.73;;;9.32;;
59786;SDS011;45672;51.612;5.536;2024-01-06T07:19:43;14.65;;;9.38;;
59786;SDS011;45672;51.612;5.536;2024-01-06T07:22:08;9.35;;;7.78;;
59786;SDS011;45672;51.612;5.536;2024-01-06T07:24:33;12.68;;;9.13;;
59786;SDS011;45672;51.612;5.536;2024-01-06T07:26:59;14.55;;;9.95;;
59786;SDS011;45672;51.612;5.536;2024-01-06T07:29:24;13.82;;;9.43;;
59786;SDS011;45672;51.612;5.536;2024-01-06T07:31:49;12.52;;;9.90;;
59786;SDS011;45672;51.612;5.536;2024-01-06T07:34:15;14.05;;;9.82;;
59786;SDS011;45672;51.612;5.536;2024-01-06T07:36:40;12.10;;;9.23;;
59786;SDS011;45672;51.612;5.536;2024-01-06T07:39:06;13.98;;;9.57;;
59786;SDS011;45672;51.612;5.536;2024-01-06T07:41:31;13.85;;;8.75;;
59786;SDS011;45672;51.612;5.536;2024-01-06T07:43:57;13.32;;;9.48;;
59786;SDS011;45672;51.612;5.536;2024-01-06T07:46:22;11.60;;;9.32;;
59786;SDS011;45672;51.612;5.536;2024-01-06T07:48:48;14.05;;;10.23;;
59786;SDS011;45672;51.612;5.536;2024-01-06T07:51:13;13.85;;;10.38;;
59786;SDS011;45672;51.612;5.536;2024-01-06T07:53:39;13.10;;;9.80;;
59786;SDS011;45672;51.612;5.536;2024-01-06T07:56:04;13.68;;;9.95;;
59786;SDS011;45672;51.612;5.536;2024-01-06T07:58:30;15.32;;;10.20;;
59786;SDS011;45672;51.612;5.536;2024-01-06T08:00:55;15.63;;;10.00;;
59786;SDS011;45672;51.612;5.536;2024-01-06T08:03:21;12.55;;;9.70;;
59786;SDS011;45672;51.612;5.536;2024-01-06T08:05:46;11.98;;;9.23;;
59786;SDS011;45672;51.612;5.536;2024-01-06T08:08:11;11.10;;;9.27;;
59786;SDS011;45672;51.612;5.536;2024-01-06T08:10:38;13.73;;;10.07;;
59786;SDS011;45672;51.612;5.536;2024-01-06T08:13:03;12.00;;;10.05;;
59786;SDS011;45672;51.612;5.536;2024-01-06T08:15:28;15.25;;;9.27;;
59786;SDS011;45672;51.612;5.536;2024-01-06T08:17:54;19.10;;;9.98;;
59786;SDS011;45672;51.612;5.536;2024-01-06T08:20:19;13.50;;;10.45;;
59786;SDS011;45672;51.612;5.536;2024-01-06T08:22:45;12.52;;;9.32;;
59786;SDS011;45672;51.612;5.536;2024-01-06T08:25:10;13.05;;;10.13;;
59786;SDS011;45672;51.612;5.536;2024-01-06T08:27:36;12.20;;;9.85;;
59786;SDS011;45672;51.612;5.536;2024-01-06T08:30:01;14.15;;;9.45;;
59786;SDS011;45672;51.612;5.536;2024-01-06T08:32:27;16.10;;;10.30;;
59786;SDS011;45672;51.612;5.536;2024-01-06T08:34:52;15.27;;;10.80;;
59786;SDS011;45672;51.612;5.536;2024-01-06T08:37:18;13.90;;;10.18;;
59786;SDS011;45672;51.612;5.536;2024-01-06T08:39:43;16.08;;;9.77;;
59786;SDS011;45672;51.612;5.536;2024-01-06T08:42:08;12.95;;;9.40;;
59786;SDS011;45672;51.612;5.536;2024-01-06T08:44:34;10.35;;;8.57;;
59786;SDS011;45672;51.612;5.536;2024-01-06T08:46:59;12.40;;;9.70;;
59786;SDS011;45672;51.612;5.536;2024-01-06T08:49:24;15.32;;;9.68;;
59786;SDS011;45672;51.612;5.536;2024-01-06T08:51:49;12.88;;;10.32;;
59786;SDS011;45672;51.612;5.536;2024-01-06T08:54:15;14.50;;;10.25;;
59786;SDS011;45672;51.612;5.536;2024-01-06T08:56:40;12.30;;;9.75;;
59786;SDS011;45672;51.612;5.536;2024-01-06T08:59:06;15.38;;;10.60;;
59786;SDS011;45672;51.612;5.536;2024-01-06T09:01:31;13.15;;;10.23;;
59786;SDS011;45672;51.612;5.536;2024-01-06T09:03:57;15.20;;;9.63;;
59786;SDS011;45672;51.612;5.536;2024-01-06T09:06:23;16.48;;;10.52;;
59786;SDS011;45672;51.612;5.536;2024-01-06T09:08:48;14.30;;;9.50;;
59786;SDS011;45672;51.612;5.536;2024-01-06T09:11:16;14.93;;;10.20;;
59786;SDS011;45672;51.612;5.536;2024-01-06T09:13:41;13.20;;;10.77;;
59786;SDS011;45672;51.612;5.536;2024-01-06T09:16:07;17.00;;;10.68;;
59786;SDS011;45672;51.612;5.536;2024-01-06T09:18:35;14.95;;;9.68;;
59786;SDS011;45672;51.612;5.536;2024-01-06T09:21:00;12.45;;;10.30;;
59786;SDS011;45672;51.612;5.536;2024-01-06T09:23:26;13.02;;;8.90;;
59786;SDS011;45672;51.612;5.536;2024-01-06T09:25:54;17.02;;;10.95;;
59786;SDS011;45672;51.612;5.536;2024-01-06T09:28:19;12.68;;;9.32;;
59786;SDS011;45672;51.612;5.536;2024-01-06T09:30:46;13.73;;;10.02;;
59786;SDS011;45672;51.612;5.536;2024-01-06T09:33:12;11.48;;;8.40;;
59786;SDS011;45672;51.612;5.536;2024-01-06T09:35:40;12.05;;;8.95;;
59786;SDS011;45672;51.612;5.536;2024-01-06T09:38:06;8.90;;;8.00;;
59786;SDS011;45672;51.612;5.536;2024-01-06T09:40:32;11.70;;;9.50;;
59786;SDS011;45672;51.612;5.536;2024-01-06T09:43:00;9.57;;;8.55;;
59786;SDS011;45672;51.612;5.536;2024-01-06T09:45:26;12.25;;;10.00;;
59786;SDS011;45672;51.612;5.536;2024-01-06T09:47:52;11.27;;;9.93;;
59786;SDS011;45672;51.612;5.536;2024-01-06T09:50:20;12.65;;;9.05;;
59786;SDS011;45672;51.612;5.536;2024-01-06T09:52:46;10.60;;;9.02;;
59786;SDS011;45672;51.612;5.536;2024-01-06T09:55:29;12.27;;;9.50;;
59786;SDS011;45672;51.612;5.536;2024-01-06T09:57:54;12.30;;;9.38;;
59786;SDS011;45672;51.612;5.536;2024-01-06T10:00:20;10.70;;;9.23;;
59786;SDS011;45672;51.612;5.536;2024-01-06T10:02:47;15.73;;;9.43;;
59786;SDS011;45672;51.612;5.536;2024-01-06T10:05:14;10.43;;;9.32;;
59786;SDS011;45672;51.612;5.536;2024-01-06T10:07:41;10.75;;;8.65;;
59786;SDS011;45672;51.612;5.536;2024-01-06T10:10:08;10.57;;;8.65;;
59786;SDS011;45672;51.612;5.536;2024-01-06T10:12:36;10.65;;;6.35;;
59786;SDS011;45672;51.612;5.536;2024-01-06T10:15:04;14.02;;;9.82;;
59786;SDS011;45672;51.612;5.536;2024-01-06T10:17:33;11.10;;;8.77;;
59786;SDS011;45672;51.612;5.536;2024-01-06T10:20:11;14.68;;;9.55;;
59786;SDS011;45672;51.612;5.536;2024-01-06T10:22:38;19.00;;;10.23;;
59786;SDS011;45672;51.612;5.536;2024-01-06T10:25:06;12.27;;;10.07;;
59786;SDS011;45672;51.612;5.536;2024-01-06T10:27:36;12.30;;;9.48;;
59786;SDS011;45672;51.612;5.536;2024-01-06T10:30:02;12.07;;;9.48;;
59786;SDS011;45672;51.612;5.536;2024-01-06T10:32:31;12.73;;;10.25;;
59786;SDS011;45672;51.612;5.536;2024-01-06T10:34:57;13.82;;;10.00;;
59786;SDS011;45672;51.612;5.536;2024-01-06T10:37:23;14.52;;;10.43;;
59786;SDS011;45672;51.612;5.536;2024-01-06T10:40:04;13.00;;;10.07;;
59786;SDS011;45672;51.612;5.536;2024-01-06T10:42:31;11.38;;;10.05;;
59786;SDS011;45672;51.612;5.536;2024-01-06T10:44:57;12.13;;;9.93;;
59786;SDS011;45672;51.612;5.536;2024-01-06T10:47:23;15.25;;;10.20;;
59786;SDS011;45672;51.612;5.536;2024-01-06T10:49:51;10.02;;;8.75;;
59786;SDS011;45672;51.612;5.536;2024-01-06T10:52:19;12.15;;;10.07;;
59786;SDS011;45672;51.612;5.536;2024-01-06T10:54:45;10.48;;;8.77;;
59786;SDS011;45672;51.612;5.536;2024-01-06T10:57:15;12.45;;;9.63;;
59786;SDS011;45672;51.612;5.536;2024-01-06T10:59:42;12.15;;;9.90;;
59786;SDS011;45672;51.612;5.536;2024-01-06T11:02:09;11.45;;;9.43;;
59786;SDS011;45672;51.612;5.536;2024-01-06T11:04:36;11.73;;;9.43;;
59786;SDS011;45672;51.612;5.536;2024-01-06T11:07:02;10.77;;;9.07;;
59786;SDS011;45672;51.612;5.536;2024-01-06T11:09:29;8.40;;;7.53;;
59786;SDS011;45672;51.612;5.536;2024-01-06T11:12:00;11.67;;;9.03;;
59786;SDS011;45672;51.612;5.536;2024-01-06T11:14:26;10.90;;;8.88;;
59786;SDS011;45672;51.612;5.536;2024-01-06T11:16:58;11.50;;;9.13;;
59786;SDS011;45672;51.612;5.536;2024-01-06T11:24:53;8.82;;;7.93;;
59786;SDS011;45672;51.612;5.536;2024-01-06T11:27:27;10.50;;;8.70;;
59786;SDS011;45672;51.612;5.536;2024-01-06T11:32:28;12.25;;;8.50;;
59786;SDS011;45672;51.612;5.536;2024-01-06T11:34:55;11.25;;;9.32;;
59786;SDS011;45672;51.612;5.536;2024-01-06T11:37:23;13.25;;;8.85;;
59786;SDS011;45672;51.612;5.536;2024-01-06T11:40:01;11.90;;;8.50;;
59786;SDS011;45672;51.612;5.536;2024-01-06T11:42:33;9.88;;;8.85;;
59786;SDS011;45672;51.612;5.536;2024-01-06T11:45:04;12.55;;;8.25;;
59786;SDS011;45672;51.612;5.536;2024-01-06T11:47:31;10.18;;;8.40;;
59786;SDS011;45672;51.612;5.536;2024-01-06T11:49:57;8.73;;;7.82;;
59786;SDS011;45672;51.612;5.536;2024-01-06T11:52:24;10.50;;;9.40;;
59786;SDS011;45672;51.612;5.536;2024-01-06T11:54:51;9.57;;;8.10;;
59786;SDS011;45672;51.612;5.536;2024-01-06T11:57:17;11.52;;;10.07;;
59786;SDS011;45672;51.612;5.536;2024-01-06T11:59:43;10.40;;;9.30;;
59786;SDS011;45672;51.612;5.536;2024-01-06T12:02:11;11.73;;;9.52;;
59786;SDS011;45672;51.612;5.536;2024-01-06T12:04:38;10.88;;;9.00;;
59786;SDS011;45672;51.612;5.536;2024-01-06T12:07:09;12.35;;;9.40;;
59786;SDS011;45672;51.612;5.536;2024-01-06T12:09:38;12.95;;;9.55;;
59786;SDS011;45672;51.612;5.536;2024-01-06T12:12:04;10.10;;;8.57;;
59786;SDS011;45672;51.612;5.536;2024-01-06T12:14:34;9.77;;;8.65;;
59786;SDS011;45672;51.612;5.536;2024-01-06T12:16:59;11.50;;;8.40;;
59786;SDS011;45672;51.612;5.536;2024-01-06T12:19:29;9.52;;;8.18;;
59786;SDS011;45672;51.612;5.536;2024-01-06T12:21:55;11.02;;;9.48;;
59786;SDS011;45672;51.612;5.536;2024-01-06T12:24:21;11.23;;;9.35;;
59786;SDS011;45672;51.612;5.536;2024-01-06T12:26:46;11.55;;;7.85;;
59786;SDS011;45672;51.612;5.536;2024-01-06T12:29:13;13.38;;;7.95;;
59786;SDS011;45672;51.612;5.536;2024-01-06T12:31:41;9.48;;;8.43;;
59786;SDS011;45672;51.612;5.536;2024-01-06T12:34:08;14.23;;;8.88;;
59786;SDS011;45672;51.612;5.536;2024-01-06T12:36:35;9.82;;;8.80;;
59786;SDS011;45672;51.612;5.536;2024-01-06T12:39:02;12.05;;;10.60;;
59786;SDS011;45672;51.612;5.536;2024-01-06T12:41:28;10.80;;;8.93;;
59786;SDS011;45672;51.612;5.536;2024-01-06T12:43:53;12.82;;;9.85;;
59786;SDS011;45672;51.612;5.536;2024-01-06T12:46:19;20.02;;;9.05;;
59786;SDS011;45672;51.612;5.536;2024-01-06T12:48:44;11.52;;;9.95;;
59786;SDS011;45672;51.612;5.536;2024-01-06T12:51:09;10.85;;;8.95;;
59786;SDS011;45672;51.612;5.536;2024-01-06T12:53:35;11.77;;;9.48;;
59786;SDS011;45672;51.612;5.536;2024-01-06T12:56:00;8.57;;;7.68;;
59786;SDS011;45672;51.612;5.536;2024-01-06T12:58:26;11.73;;;9.73;;
59786;SDS011;45672;51.612;5.536;2024-01-06T13:00:51;10.93;;;8.65;;
59786;SDS011;45672;51.612;5.536;2024-01-06T13:03:16;8.35;;;6.85;;
59786;SDS011;45672;51.612;5.536;2024-01-06T13:05:42;8.32;;;7.13;;
59786;SDS011;45672;51.612;5.536;2024-01-06T13:08:07;9.18;;;8.23;;
59786;SDS011;45672;51.612;5.536;2024-01-06T13:10:32;9.77;;;7.95;;
59786;SDS011;45672;51.612;5.536;2024-01-06T13:12:59;9.40;;;7.72;;
59786;SDS011;45672;51.612;5.536;2024-01-06T13:15:24;9.48;;;7.18;;
59786;SDS011;45672;51.612;5.536;2024-01-06T13:17:50;9.75;;;8.18;;
59786;SDS011;45672;51.612;5.536;2024-01-06T13:20:16;7.35;;;6.53;;
59786;SDS011;45672;51.612;5.536;2024-01-06T13:22:41;6.72;;;6.10;;
59786;SDS011;45672;51.612;5.536;2024-01-06T13:25:07;7.55;;;6.78;;
59786;SDS011;45672;51.612;5.536;2024-01-06T13:27:33;6.38;;;5.72;;
59786;SDS011;45672;51.612;5.536;2024-01-06T13:29:59;10.00;;;7.35;;
59786;SDS011;45672;51.612;5.536;2024-01-06T13:32:25;6.82;;;6.20;;
59786;SDS011;45672;51.612;5.536;2024-01-06T13:34:52;6.50;;;5.90;;
59786;SDS011;45672;51.612;5.536;2024-01-06T13:37:20;7.35;;;6.65;;
59786;SDS011;45672;51.612;5.536;2024-01-06T13:39:47;8.30;;;6.70;;
59786;SDS011;45672;51.612;5.536;2024-01-06T13:42:13;8.60;;;6.82;;
59786;SDS011;45672;51.612;5.536;2024-01-06T13:44:38;11.20;;;7.35;;
59786;SDS011;45672;51.612;5.536;2024-01-06T13:47:04;9.20;;;7.88;;
59786;SDS011;45672;51.612;5.536;2024-01-06T13:49:29;7.72;;;7.00;;
59786;SDS011;45672;51.612;5.536;2024-01-06T13:51:55;9.52;;;6.45;;
59786;SDS011;45672;51.612;5.536;2024-01-06T13:54:20;6.93;;;6.25;;
59786;SDS011;45672;51.612;5.536;2024-01-06T13:56:46;9.35;;;7.68;;
59786;SDS011;45672;51.612;5.536;2024-01-06T13:59:11;10.98;;;8.02;;
59786;SDS011;45672;51.612;5.536;2024-01-06T14:01:36;6.38;;;5.82;;
59786;SDS011;45672;51.612;5.536;2024-01-06T14:04:02;8.73;;;6.75;;
59786;SDS011;45672;51.612;5.536;2024-01-06T14:06:30;10.90;;;8.43;;
59786;SDS011;45672;51.612;5.536;2024-01-06T14:08:59;10.38;;;7.57;;
59786;SDS011;45672;51.612;5.536;2024-01-06T14:11:25;9.60;;;7.40;;
59786;SDS011;45672;51.612;5.536;2024-01-06T14:13:51;11.82;;;8.18;;
59786;SDS011;45672;51.612;5.536;2024-01-06T14:16:17;13.85;;;9.15;;
59786;SDS011;45672;51.612;5.536;2024-01-06T14:18:43;12.82;;;8.52;;
59786;SDS011;45672;51.612;5.536;2024-01-06T14:21:09;11.02;;;9.02;;
59786;SDS011;45672;51.612;5.536;2024-01-06T14:23:35;10.45;;;8.90;;
59786;SDS011;45672;51.612;5.536;2024-01-06T14:26:01;9.52;;;6.60;;
59786;SDS011;45672;51.612;5.536;2024-01-06T14:28:26;11.57;;;9.68;;
59786;SDS011;45672;51.612;5.536;2024-01-06T14:30:51;12.50;;;10.25;;
59786;SDS011;45672;51.612;5.536;2024-01-06T14:33:17;14.00;;;9.98;;